createdAt,value
2019-04-05T00:01:04.402Z,9.55
2019-04-05T00:03:35.205Z,8.90
2019-04-05T00:06:05.369Z,8.53
2019-04-05T00:08:36.611Z,8.45
2019-04-05T00:11:06.841Z,9.15
2019-04-05T00:13:36.429Z,9.15
2019-04-05T00:16:07.565Z,9.65
2019-04-05T00:18:40.001Z,9.10
2019-04-05T00:21:10.786Z,9.75
2019-04-05T00:23:43.469Z,9.15
2019-04-05T00:26:12.582Z,10.08
2019-04-05T00:28:42.391Z,9.48
2019-04-05T00:31:13.710Z,8.70
2019-04-05T00:33:45.863Z,10.18
2019-04-05T00:36:15.240Z,10.13
2019-04-05T00:38:45.434Z,10.55
2019-04-05T00:41:15.910Z,10.55
2019-04-05T00:43:45.271Z,10.95
2019-04-05T00:46:14.383Z,10.00
2019-04-05T00:48:45.111Z,10.63
2019-04-05T00:51:15.398Z,10.95
2019-04-05T00:53:44.590Z,10.55
2019-04-05T00:56:13.715Z,11.38
2019-04-05T00:58:42.831Z,11.80
2019-04-05T01:01:11.938Z,11.93
2019-04-05T01:03:42.438Z,12.35
2019-04-05T01:06:12.522Z,13.70
2019-04-05T01:08:42.486Z,13.62
2019-04-05T01:11:11.608Z,12.82
2019-04-05T01:13:42.007Z,12.30
2019-04-05T01:16:11.114Z,12.35
2019-04-05T01:18:42.892Z,13.25
2019-04-05T01:21:12.709Z,12.80
2019-04-05T01:23:42.316Z,12.20
2019-04-05T01:26:13.744Z,13.62
2019-04-05T01:28:47.757Z,14.60
2019-04-05T01:31:16.866Z,13.85
2019-04-05T01:33:46.611Z,12.37
2019-04-05T01:36:18.130Z,10.80
2019-04-05T01:38:48.251Z,11.83
2019-04-05T01:41:19.013Z,11.68
2019-04-05T01:43:49.005Z,11.90
2019-04-05T01:46:21.331Z,13.38
2019-04-05T01:48:50.469Z,13.98
2019-04-05T01:51:19.606Z,14.07
2019-04-05T01:53:50.230Z,15.75
2019-04-05T01:56:20.638Z,17.55
2019-04-05T01:58:52.108Z,16.82
2019-04-05T02:01:21.489Z,16.30
2019-04-05T02:03:50.611Z,15.80
2019-04-05T02:06:19.744Z,15.90
2019-04-05T02:08:48.857Z,17.75
2019-04-05T02:11:19.218Z,16.80
2019-04-05T02:13:48.563Z,16.15
2019-04-05T02:16:17.678Z,15.20
2019-04-05T02:18:49.454Z,13.88
2019-04-05T02:21:19.131Z,13.13
2019-04-05T02:23:51.726Z,13.10
2019-04-05T02:26:20.834Z,13.50
2019-04-05T02:28:53.608Z,12.63
2019-04-05T02:31:27.407Z,12.58
2019-04-05T02:33:56.760Z,12.15
2019-04-05T02:36:26.656Z,13.45
2019-04-05T02:38:58.818Z,11.90
2019-04-05T02:41:29.474Z,12.37
2019-04-05T02:43:59.767Z,12.85
2019-04-05T02:46:29.146Z,11.22
2019-04-05T02:52:05.188Z,14.05
2019-04-05T02:54:34.356Z,12.07
2019-04-05T02:57:03.500Z,13.10
2019-04-05T02:59:33.387Z,12.60
2019-04-05T03:02:07.007Z,11.68
2019-04-05T03:04:38.339Z,10.75
2019-04-05T03:07:11.650Z,12.05
2019-04-05T03:09:46.017Z,10.55
2019-04-05T03:12:19.055Z,12.50
2019-04-05T03:14:47.517Z,11.80
2019-04-05T03:17:16.629Z,11.48
2019-04-05T03:19:49.750Z,10.43
2019-04-05T03:22:19.641Z,10.15
2019-04-05T03:24:53.118Z,9.93
2019-04-05T03:27:28.671Z,10.08
2019-04-05T03:30:00.888Z,9.55
2019-04-05T03:32:30.058Z,7.47
2019-04-05T03:35:00.609Z,8.78
2019-04-05T03:37:32.725Z,7.60
2019-04-05T03:40:03.577Z,6.12
2019-04-05T03:42:32.728Z,5.28
2019-04-05T03:45:01.835Z,5.55
2019-04-05T03:47:30.933Z,6.40
2019-04-05T03:50:01.994Z,5.70
2019-04-05T03:52:34.697Z,5.72
2019-04-05T03:55:04.071Z,6.20
2019-04-05T03:57:34.476Z,5.35
2019-04-05T04:00:07.930Z,5.10
2019-04-05T04:02:42.668Z,5.05
2019-04-05T04:05:16.238Z,5.55
2019-04-05T04:07:45.373Z,4.80
2019-04-05T04:10:19.064Z,5.03
2019-04-05T04:12:48.389Z,4.78
2019-04-05T04:15:17.488Z,5.45
2019-04-05T04:17:49.479Z,4.87
2019-04-05T04:20:29.922Z,4.58
2019-04-05T04:22:59.923Z,5.10
2019-04-05T04:25:29.038Z,4.25
2019-04-05T04:27:58.119Z,4.80
2019-04-05T04:30:27.748Z,4.85
2019-04-05T04:33:02.435Z,4.92
2019-04-05T04:35:31.960Z,4.78
2019-04-05T04:38:02.849Z,4.55
2019-04-05T04:40:33.313Z,4.85
2019-04-05T04:43:08.092Z,5.50
2019-04-05T04:45:40.937Z,5.58
2019-04-05T04:48:13.442Z,5.78
2019-04-05T04:50:43.525Z,5.00
2019-04-05T04:53:12.629Z,6.58
2019-04-05T04:55:42.589Z,6.25
2019-04-05T04:58:11.948Z,6.28
2019-04-05T05:00:46.955Z,6.80
2019-04-05T05:03:20.200Z,6.80
2019-04-05T05:05:50.954Z,7.43
2019-04-05T05:08:25.027Z,7.47
2019-04-05T05:10:55.104Z,8.28
2019-04-05T05:13:29.036Z,8.65
2019-04-05T05:16:03.302Z,7.80
2019-04-05T05:18:45.058Z,7.78
2019-04-05T05:21:16.378Z,8.40
2019-04-05T05:23:47.110Z,8.58
2019-04-05T05:26:16.223Z,8.53
2019-04-05T05:28:45.323Z,8.73
2019-04-05T05:31:14.453Z,8.93
2019-04-05T05:33:44.590Z,7.92
2019-04-05T05:36:16.829Z,7.95
2019-04-05T05:38:47.560Z,7.50
2019-04-05T05:41:19.268Z,7.22
2019-04-05T05:43:50.811Z,8.23
2019-04-05T05:46:21.236Z,9.50
2019-04-05T05:48:50.318Z,9.78
2019-04-05T05:51:20.279Z,10.03
2019-04-05T05:54:14.833Z,10.78
2019-04-05T05:56:46.698Z,11.40
2019-04-05T05:59:21.256Z,11.25
2019-04-05T06:01:52.946Z,10.80
2019-04-05T06:04:27.512Z,11.93
2019-04-05T06:06:58.564Z,12.23
2019-04-05T06:09:35.749Z,12.05
2019-04-05T06:12:09.417Z,11.60
2019-04-05T06:14:42.601Z,11.43
2019-04-05T06:17:25.888Z,12.68
2019-04-05T06:19:49.129Z,12.85
2019-04-05T06:22:19.607Z,13.38
2019-04-05T06:24:51.318Z,14.07
2019-04-05T06:27:21.562Z,13.35
2019-04-05T06:29:51.324Z,11.63
2019-04-05T06:32:22.762Z,14.65
2019-04-05T06:34:52.507Z,13.43
2019-04-05T06:37:24.713Z,13.05
2019-04-05T06:40:01.439Z,13.53
2019-04-05T06:42:31.906Z,12.53
2019-04-05T06:45:05.276Z,11.63
2019-04-05T06:47:35.785Z,12.50
2019-04-05T06:50:09.340Z,10.48
2019-04-05T06:52:40.131Z,11.55
2019-04-05T06:55:12.915Z,11.83
2019-04-05T06:57:42.055Z,11.90
2019-04-05T07:00:11.454Z,12.00
2019-04-05T07:02:43.904Z,12.05
2019-04-05T07:05:14.296Z,11.08
2019-04-05T07:07:45.624Z,12.10
2019-04-05T07:10:15.789Z,11.75
2019-04-05T07:15:39.551Z,12.15
2019-04-05T07:18:10.106Z,12.47
2019-04-05T07:23:29.407Z,12.85
2019-04-05T07:26:00.831Z,13.95
2019-04-05T07:28:31.513Z,14.68
2019-04-05T07:33:51.648Z,13.18
2019-04-05T07:36:20.767Z,13.90
2019-04-05T07:38:51.752Z,13.25
2019-04-05T07:41:20.851Z,14.03
2019-04-05T07:43:50.321Z,13.83
2019-04-05T07:46:19.672Z,15.45
2019-04-05T07:48:49.483Z,13.03
2019-04-05T07:51:22.667Z,13.35
2019-04-05T07:53:56.088Z,12.65
2019-04-05T07:56:28.335Z,13.30
2019-04-05T07:58:59.451Z,13.43
2019-04-05T08:01:31.403Z,12.88
2019-04-05T08:04:05.355Z,13.53
2019-04-05T08:06:36.296Z,13.43
2019-04-05T08:09:13.491Z,14.70
2019-04-05T08:11:44.028Z,16.07
2019-04-05T08:14:18.589Z,15.58
2019-04-05T08:16:51.703Z,15.88
2019-04-05T08:19:20.839Z,15.08
2019-04-05T08:21:51.343Z,15.65
2019-04-05T08:24:24.142Z,14.07
2019-04-05T08:26:55.550Z,14.50
2019-04-05T08:29:28.808Z,14.03
2019-04-05T08:32:13.676Z,13.85
2019-04-05T08:34:33.014Z,14.67
2019-04-05T08:37:04.379Z,13.70
2019-04-05T08:39:38.887Z,14.60
2019-04-05T08:42:11.003Z,14.20
2019-04-05T08:44:45.268Z,13.88
2019-04-05T08:49:45.545Z,13.40
2019-04-05T08:52:16.731Z,13.65
2019-04-05T08:54:46.330Z,13.80
2019-04-05T08:57:15.459Z,13.20
2019-04-05T08:59:45.702Z,13.90
2019-04-05T09:02:18.191Z,13.53
2019-04-05T09:04:52.381Z,13.78
2019-04-05T09:07:23.204Z,14.05
2019-04-05T09:09:53.619Z,14.20
2019-04-05T09:12:22.747Z,13.50
2019-04-05T09:14:52.112Z,12.43
2019-04-05T09:17:23.430Z,12.73
2019-04-05T09:19:54.342Z,12.00
2019-04-05T09:22:25.875Z,11.97
2019-04-05T09:24:57.832Z,11.38
2019-04-05T09:27:29.727Z,10.53
2019-04-05T09:29:59.090Z,11.22
2019-04-05T09:32:28.567Z,12.70
2019-04-05T09:35:00.956Z,12.05
2019-04-05T09:37:35.661Z,10.32
2019-04-05T09:40:06.303Z,11.25
2019-04-05T09:42:38.130Z,10.53
2019-04-05T09:45:08.292Z,10.88
2019-04-05T09:47:38.536Z,10.80
2019-04-05T09:50:11.099Z,11.10
2019-04-05T09:52:42.084Z,10.32
2019-04-05T09:55:17.071Z,10.53
2019-04-05T09:57:46.206Z,10.18
2019-04-05T10:00:19.103Z,11.68
2019-04-05T10:05:33.042Z,10.53
2019-04-05T10:08:02.995Z,11.05
2019-04-05T10:10:34.740Z,11.30
2019-04-05T10:13:09.976Z,12.10
2019-04-05T10:15:42.820Z,11.78
2019-04-05T10:18:13.218Z,12.15
2019-04-05T10:20:45.495Z,12.80
2019-04-05T10:23:14.757Z,11.70
2019-04-05T10:25:52.544Z,12.30
2019-04-05T10:28:25.352Z,11.83
2019-04-05T10:30:57.896Z,12.40
2019-04-05T10:33:29.139Z,10.45
2019-04-05T10:36:05.576Z,11.68
2019-04-05T10:38:35.775Z,12.33
2019-04-05T10:41:06.185Z,12.10
2019-04-05T10:43:36.952Z,11.20
2019-04-05T10:46:09.409Z,11.63
2019-04-05T10:48:39.118Z,11.63
2019-04-05T10:51:13.844Z,12.58
2019-04-05T10:53:44.776Z,11.48
2019-04-05T10:56:15.511Z,12.75
2019-04-05T10:58:48.609Z,12.45
2019-04-05T11:01:20.965Z,11.70
2019-04-05T11:03:50.091Z,11.85
2019-04-05T11:06:23.588Z,13.15
2019-04-05T11:09:00.913Z,11.43
2019-04-05T11:11:37.966Z,10.45
2019-04-05T11:14:15.744Z,12.58
2019-04-05T11:16:58.781Z,12.33
2019-04-05T11:19:27.482Z,11.03
2019-04-05T11:22:02.720Z,12.30
2019-04-05T11:24:35.683Z,13.20
2019-04-05T11:27:09.080Z,12.98
2019-04-05T11:29:43.423Z,12.07
2019-04-05T11:32:18.114Z,12.80
2019-04-05T11:34:50.275Z,11.15
2019-04-05T11:37:30.292Z,12.78
2019-04-05T11:40:00.313Z,12.37
2019-04-05T11:42:29.718Z,13.45
2019-04-05T11:45:00.519Z,13.88
2019-04-05T11:47:34.344Z,13.62
2019-04-05T11:50:03.656Z,12.93
2019-04-05T11:52:37.592Z,12.70
2019-04-05T11:55:09.701Z,12.78
2019-04-05T11:57:54.675Z,13.60
2019-04-05T12:00:25.715Z,12.47
2019-04-05T12:03:13.040Z,14.75
2019-04-05T12:05:46.548Z,12.82
2019-04-05T12:08:16.299Z,14.55
2019-04-05T12:10:50.351Z,13.88
2019-04-05T12:13:22.791Z,15.80
2019-04-05T12:15:58.982Z,15.60
2019-04-05T12:18:32.514Z,14.53
2019-04-05T12:21:08.310Z,14.20
2019-04-05T12:23:40.309Z,13.38
2019-04-05T12:26:10.769Z,14.80
2019-04-05T12:28:43.014Z,14.80
2019-04-05T12:31:13.787Z,15.45
2019-04-05T12:33:46.981Z,15.13
2019-04-05T12:36:16.268Z,14.67
2019-04-05T12:38:46.782Z,14.70
2019-04-05T12:41:18.237Z,14.60
2019-04-05T12:43:51.654Z,14.43
2019-04-05T12:46:25.096Z,14.98
2019-04-05T12:48:57.469Z,15.43
2019-04-05T12:51:28.965Z,16.25
2019-04-05T12:54:01.504Z,15.55
2019-04-05T12:56:33.707Z,14.70
2019-04-05T12:59:10.180Z,14.43
2019-04-05T13:01:40.885Z,15.20
2019-04-05T13:04:15.608Z,15.98
2019-04-05T13:06:46.368Z,14.95
2019-04-05T13:09:21.427Z,15.23
2019-04-05T13:11:57.383Z,16.20
2019-04-05T13:14:30.421Z,16.20
2019-04-05T13:17:02.947Z,16.12
2019-04-05T13:19:36.307Z,15.98
2019-04-05T13:22:12.587Z,16.87
2019-04-05T13:24:42.771Z,16.95
2019-04-05T13:27:13.023Z,16.10
2019-04-05T13:29:44.025Z,16.67
2019-04-05T13:32:17.097Z,16.37
2019-04-05T13:34:48.955Z,16.50
2019-04-05T13:37:20.393Z,17.55
2019-04-05T13:39:57.649Z,17.67
2019-04-05T13:42:35.476Z,16.52
2019-04-05T13:45:11.162Z,18.02
2019-04-05T13:48:09.837Z,17.48
2019-04-05T13:51:13.230Z,17.80
2019-04-05T13:59:00.583Z,17.02
2019-04-05T14:02:39.660Z,16.77
2019-04-05T14:05:13.591Z,16.05
2019-04-05T14:10:46.024Z,17.20
2019-04-05T14:13:20.808Z,17.75
2019-04-05T14:16:08.557Z,16.32
2019-04-05T14:21:40.724Z,16.52
2019-04-05T14:24:09.017Z,15.75
2019-04-05T14:26:45.065Z,18.05
2019-04-05T14:32:03.180Z,16.82
2019-04-05T14:34:39.921Z,17.12
2019-04-05T14:37:33.264Z,15.95
2019-04-05T14:40:05.497Z,16.97
2019-04-05T14:42:42.622Z,16.65
2019-04-05T14:45:50.409Z,17.15
2019-04-05T14:48:19.444Z,15.53
2019-04-05T14:50:51.701Z,16.00
2019-04-05T14:53:24.448Z,15.78
2019-04-05T14:56:05.724Z,17.77
2019-04-05T14:58:42.606Z,16.87
2019-04-05T15:01:31.907Z,15.72
2019-04-05T15:04:07.497Z,15.63
2019-04-05T15:06:35.578Z,15.48
2019-04-05T15:09:07.153Z,16.57
2019-04-05T15:11:51.896Z,15.78
2019-04-05T15:14:27.835Z,15.98
2019-04-05T15:16:58.163Z,16.93
2019-04-05T15:19:33.598Z,17.50
2019-04-05T15:22:12.758Z,16.17
2019-04-05T15:24:58.141Z,17.70
2019-04-05T15:27:30.085Z,17.98
2019-04-05T15:30:25.877Z,17.80
2019-04-05T15:32:39.290Z,18.80
2019-04-05T15:35:12.491Z,20.27
2019-04-05T15:37:43.515Z,19.62
2019-04-05T15:40:16.426Z,20.23
2019-04-05T15:45:16.598Z,18.98
2019-04-05T15:47:46.092Z,19.27
2019-04-05T15:50:17.073Z,20.48
2019-04-05T15:52:54.699Z,19.67
2019-04-05T15:55:24.043Z,19.90
2019-04-05T15:57:56.447Z,20.88
2019-04-05T16:00:43.560Z,19.42
2019-04-05T16:03:14.457Z,21.40
2019-04-05T16:05:52.617Z,20.48
2019-04-05T16:08:23.983Z,21.73
2019-04-05T16:10:56.482Z,21.45
2019-04-05T16:13:28.526Z,21.30
2019-04-05T16:16:00.621Z,21.68
2019-04-05T16:18:35.324Z,21.55
2019-04-05T16:21:08.598Z,22.87
2019-04-05T16:23:44.006Z,21.75
2019-04-05T16:26:17.210Z,23.15
2019-04-05T16:28:48.583Z,21.77
2019-04-05T16:31:19.198Z,21.93
2019-04-05T16:33:48.656Z,21.95
2019-04-05T16:36:20.758Z,22.98
2019-04-05T16:38:49.923Z,22.52
2019-04-05T16:41:26.471Z,23.92
2019-04-05T16:44:02.809Z,23.73
2019-04-05T16:46:33.580Z,24.77
2019-04-05T16:49:12.389Z,24.37
2019-04-05T16:55:06.068Z,24.92
2019-04-05T16:57:40.350Z,26.05
2019-04-05T17:00:21.176Z,26.50
2019-04-05T17:03:04.463Z,26.40
2019-04-05T17:05:31.606Z,32.17
2019-04-05T17:08:11.222Z,33.15
2019-04-05T17:10:48.474Z,30.40
2019-04-05T17:13:19.531Z,28.57
2019-04-05T17:15:49.634Z,28.85
2019-04-05T17:18:21.718Z,30.12
2019-04-05T17:21:18.835Z,31.33
2019-04-05T17:24:04.210Z,36.30
2019-04-05T17:26:34.393Z,33.10
2019-04-05T17:29:03.830Z,31.37
2019-04-05T17:31:33.252Z,30.15
2019-04-05T17:34:02.706Z,31.77
2019-04-05T17:36:34.883Z,32.53
2019-04-05T17:39:10.228Z,45.88
2019-04-05T17:41:43.944Z,34.70
2019-04-05T17:44:16.858Z,38.15
2019-04-05T17:46:49.720Z,33.35
2019-04-05T17:49:27.643Z,32.50
2019-04-05T17:51:56.752Z,45.00
2019-04-05T17:54:26.773Z,32.67
2019-04-05T17:56:59.528Z,32.67
2019-04-05T17:59:31.552Z,30.92
2019-04-05T18:02:04.819Z,31.82
2019-04-05T18:04:36.282Z,34.30
2019-04-05T18:07:06.385Z,30.82
2019-04-05T18:12:38.676Z,29.07
2019-04-05T18:15:13.858Z,29.15
2019-04-05T18:17:53.292Z,31.30
2019-04-05T18:20:27.100Z,31.68
2019-04-05T18:23:24.827Z,32.05
2019-04-05T18:25:51.693Z,31.90
2019-04-05T18:28:24.102Z,31.73
2019-04-05T18:30:53.319Z,30.17
2019-04-05T18:33:26.504Z,30.88
2019-04-05T18:35:59.707Z,29.92
2019-04-05T18:38:31.480Z,30.10
2019-04-05T18:41:00.698Z,30.20
2019-04-05T18:43:29.823Z,29.67
2019-04-05T18:45:59.472Z,29.90
2019-04-05T18:48:29.939Z,29.20
2019-04-05T18:51:14.604Z,27.95
2019-04-05T18:53:44.195Z,28.92
2019-04-05T18:56:14.147Z,30.45
2019-04-05T18:58:45.739Z,30.57
2019-04-05T19:01:21.150Z,30.57
2019-04-05T19:03:53.548Z,29.87
2019-04-05T19:06:23.634Z,30.72
2019-04-05T19:09:11.776Z,28.45
2019-04-05T19:11:48.518Z,30.92
2019-04-05T19:14:23.107Z,29.12
2019-04-05T19:16:53.041Z,30.43
2019-04-05T19:19:37.864Z,29.85
2019-04-05T19:22:10.450Z,34.03
2019-04-05T19:24:48.521Z,31.35
2019-04-05T19:27:21.812Z,31.50
2019-04-05T19:51:05.491Z,31.50
2019-04-05T19:53:37.888Z,30.40
2019-04-05T19:56:13.705Z,32.35
2019-04-05T19:58:47.012Z,30.20
2019-04-05T20:01:17.760Z,29.12
2019-04-05T20:03:46.886Z,31.70
2019-04-05T20:06:23.862Z,32.13
2019-04-05T20:08:57.424Z,30.12
2019-04-05T20:11:27.846Z,30.75
2019-04-05T20:13:58.686Z,31.62
2019-04-05T20:16:28.674Z,33.42
2019-04-05T20:19:09.768Z,35.43
2019-04-05T20:21:38.867Z,37.48
2019-04-05T20:24:14.376Z,36.85
2019-04-05T20:26:42.372Z,36.65
2019-04-05T20:29:11.675Z,35.50
2019-04-05T20:31:47.003Z,34.48
2019-04-05T20:34:24.783Z,37.35
2019-04-05T20:36:58.546Z,35.30
2019-04-05T20:39:30.320Z,34.98
2019-04-05T20:42:05.050Z,36.55
2019-04-05T20:44:37.131Z,34.25
2019-04-05T20:49:38.365Z,33.60
2019-04-05T20:52:17.096Z,35.30
2019-04-05T20:54:51.602Z,36.53
2019-04-05T20:57:21.726Z,34.63
2019-04-05T20:59:53.750Z,35.92
2019-04-05T21:02:23.351Z,36.68
2019-04-05T21:04:52.533Z,36.80
2019-04-05T21:07:22.933Z,37.63
2019-04-05T21:09:53.772Z,40.92
2019-04-05T21:12:24.591Z,39.70
2019-04-05T21:14:53.711Z,41.75
2019-04-05T21:17:23.792Z,42.33
2019-04-05T21:19:57.001Z,43.85
2019-04-05T21:22:44.763Z,43.60
2019-04-05T21:25:13.875Z,42.83
2019-04-05T21:27:45.200Z,41.92
2019-04-05T21:30:16.424Z,37.88
2019-04-05T21:32:48.166Z,41.88
2019-04-05T21:35:19.863Z,43.92
2019-04-05T21:37:52.852Z,41.02
2019-04-05T21:40:25.183Z,46.68
2019-04-05T21:42:56.734Z,47.50
2019-04-05T21:45:26.935Z,44.63
2019-04-05T21:47:56.330Z,40.73
2019-04-05T21:50:26.078Z,38.95
2019-04-05T21:52:56.858Z,41.68
2019-04-05T21:55:28.904Z,39.73
2019-04-05T21:58:00.020Z,39.70
2019-04-05T22:00:36.235Z,39.27
2019-04-05T22:03:09.040Z,40.25
2019-04-05T22:05:44.804Z,38.20
2019-04-05T22:08:15.546Z,40.17
2019-04-05T22:10:44.684Z,39.33
2019-04-05T22:13:15.840Z,39.38
2019-04-05T22:15:44.959Z,39.05
2019-04-05T22:18:14.815Z,38.65
2019-04-05T22:20:46.131Z,41.23
2019-04-05T22:23:15.519Z,39.98
2019-04-05T22:25:44.653Z,39.92
2019-04-05T22:28:14.384Z,37.45
2019-04-05T22:30:45.045Z,37.73
2019-04-05T22:33:14.164Z,38.58
2019-04-05T22:35:46.671Z,35.85
2019-04-05T22:38:20.838Z,35.25
2019-04-05T22:43:24.438Z,33.67
2019-04-05T22:45:55.527Z,35.80
2019-04-05T22:48:24.675Z,35.58
2019-04-05T22:50:55.396Z,35.17
2019-04-05T22:53:31.038Z,36.33
2019-04-05T22:56:04.595Z,36.50
2019-04-05T22:58:33.730Z,35.17
2019-04-05T23:01:04.135Z,33.92
2019-04-05T23:03:33.274Z,33.15
2019-04-05T23:06:03.451Z,33.50
2019-04-05T23:08:32.570Z,34.20
2019-04-05T23:11:01.707Z,34.20
2019-04-05T23:13:32.969Z,34.18
2019-04-05T23:16:10.048Z,34.60
2019-04-05T23:18:49.776Z,36.30
2019-04-05T23:21:11.410Z,35.50
2019-04-05T23:23:42.151Z,37.20
2019-04-05T23:26:14.374Z,36.68
2019-04-05T23:28:43.745Z,36.00
2019-04-05T23:31:13.918Z,35.30
2019-04-05T23:33:44.661Z,39.08
2019-04-05T23:36:13.793Z,45.67
2019-04-05T23:38:43.932Z,40.38
2019-04-05T23:41:13.061Z,41.45
2019-04-05T23:43:42.193Z,45.45
2019-04-05T23:46:11.324Z,46.85
2019-04-05T23:48:40.447Z,47.25
2019-04-05T23:51:09.590Z,47.23
2019-04-05T23:53:39.201Z,56.15
2019-04-05T23:56:09.589Z,49.65
2019-04-05T23:58:40.604Z,53.42
